sensor_id;sensor_type;location;lat;lon;timestamp;P1;durP1;ratioP1;P2;durP2;ratioP2
14282;SDS011;7225;59.282;18.344;2023-01-29T00:02:07;1.23;;;0.77;;
14282;SDS011;7225;59.282;18.344;2023-01-29T00:04:34;4.77;;;1.27;;
14282;SDS011;7225;59.282;18.344;2023-01-29T00:07:01;6.03;;;1.37;;
14282;SDS011;7225;59.282;18.344;2023-01-29T00:09:28;2.40;;;1.00;;
14282;SDS011;7225;59.282;18.344;2023-01-29T00:11:56;5.00;;;1.00;;
14282;SDS011;7225;59.282;18.344;2023-01-29T00:14:23;1.37;;;0.90;;
14282;SDS011;7225;59.282;18.344;2023-01-29T00:16:52;4.33;;;1.30;;
14282;SDS011;7225;59.282;18.344;2023-01-29T00:19:19;3.63;;;1.20;;
14282;SDS011;7225;59.282;18.344;2023-01-29T00:21:46;4.20;;;1.30;;
14282;SDS011;7225;59.282;18.344;2023-01-29T00:24:13;3.63;;;0.93;;
14282;SDS011;7225;59.282;18.344;2023-01-29T00:26:40;3.00;;;1.20;;
14282;SDS011;7225;59.282;18.344;2023-01-29T00:29:08;4.03;;;0.90;;
14282;SDS011;7225;59.282;18.344;2023-01-29T00:31:35;1.77;;;0.90;;
14282;SDS011;7225;59.282;18.344;2023-01-29T00:34:02;3.77;;;1.73;;
14282;SDS011;7225;59.282;18.344;2023-01-29T00:36:29;2.27;;;0.80;;
14282;SDS011;7225;59.282;18.344;2023-01-29T00:38:57;6.87;;;1.37;;
14282;SDS011;7225;59.282;18.344;2023-01-29T00:41:26;4.60;;;1.20;;
14282;SDS011;7225;59.282;18.344;2023-01-29T00:44:16;1.67;;;0.97;;
14282;SDS011;7225;59.282;18.344;2023-01-29T00:47:02;3.13;;;1.00;;
14282;SDS011;7225;59.282;18.344;2023-01-29T00:49:30;3.13;;;1.07;;
14282;SDS011;7225;59.282;18.344;2023-01-29T00:51:57;3.20;;;1.20;;
14282;SDS011;7225;59.282;18.344;2023-01-29T00:54:42;4.07;;;1.13;;
14282;SDS011;7225;59.282;18.344;2023-01-29T00:57:09;3.27;;;1.10;;
14282;SDS011;7225;59.282;18.344;2023-01-29T00:59:37;3.77;;;1.13;;
14282;SDS011;7225;59.282;18.344;2023-01-29T01:02:04;4.87;;;1.00;;
14282;SDS011;7225;59.282;18.344;2023-01-29T01:04:50;2.47;;;0.97;;
14282;SDS011;7225;59.282;18.344;2023-01-29T01:07:17;5.73;;;1.40;;
14282;SDS011;7225;59.282;18.344;2023-01-29T01:09:44;5.17;;;1.23;;
14282;SDS011;7225;59.282;18.344;2023-01-29T01:12:29;6.50;;;1.00;;
14282;SDS011;7225;59.282;18.344;2023-01-29T01:14:57;5.50;;;1.10;;
14282;SDS011;7225;59.282;18.344;2023-01-29T01:17:24;3.10;;;1.10;;
14282;SDS011;7225;59.282;18.344;2023-01-29T01:19:51;3.47;;;0.93;;
14282;SDS011;7225;59.282;18.344;2023-01-29T01:22:18;2.90;;;0.97;;
14282;SDS011;7225;59.282;18.344;2023-01-29T01:24:45;4.13;;;1.13;;
14282;SDS011;7225;59.282;18.344;2023-01-29T01:27:12;5.20;;;1.00;;
14282;SDS011;7225;59.282;18.344;2023-01-29T01:29:39;3.83;;;1.20;;
14282;SDS011;7225;59.282;18.344;2023-01-29T01:32:06;4.03;;;1.03;;
14282;SDS011;7225;59.282;18.344;2023-01-29T01:34:33;7.20;;;1.00;;
14282;SDS011;7225;59.282;18.344;2023-01-29T01:37:01;3.60;;;0.83;;
14282;SDS011;7225;59.282;18.344;2023-01-29T01:39:28;3.67;;;0.93;;
14282;SDS011;7225;59.282;18.344;2023-01-29T01:41:55;5.57;;;1.10;;
14282;SDS011;7225;59.282;18.344;2023-01-29T01:50:15;3.40;;;1.10;;
14282;SDS011;7225;59.282;18.344;2023-01-29T01:52:54;5.93;;;1.13;;
14282;SDS011;7225;59.282;18.344;2023-01-29T01:55:25;5.20;;;1.00;;
14282;SDS011;7225;59.282;18.344;2023-01-29T01:57:58;3.00;;;1.10;;
14282;SDS011;7225;59.282;18.344;2023-01-29T02:00:38;4.13;;;1.77;;
14282;SDS011;7225;59.282;18.344;2023-01-29T02:03:05;3.40;;;0.83;;
14282;SDS011;7225;59.282;18.344;2023-01-29T02:05:53;4.07;;;0.87;;
14282;SDS011;7225;59.282;18.344;2023-01-29T02:08:53;4.60;;;1.37;;
14282;SDS011;7225;59.282;18.344;2023-01-29T02:11:44;5.70;;;1.30;;
14282;SDS011;7225;59.282;18.344;2023-01-29T02:14:11;2.73;;;1.17;;
14282;SDS011;7225;59.282;18.344;2023-01-29T02:16:38;3.43;;;1.10;;
14282;SDS011;7225;59.282;18.344;2023-01-29T02:19:09;3.37;;;0.80;;
14282;SDS011;7225;59.282;18.344;2023-01-29T02:30:20;5.33;;;1.30;;
14282;SDS011;7225;59.282;18.344;2023-01-29T02:35:42;3.83;;;1.10;;
14282;SDS011;7225;59.282;18.344;2023-01-29T02:41:27;1.80;;;1.10;;
14282;SDS011;7225;59.282;18.344;2023-01-29T02:46:54;2.30;;;1.10;;
14282;SDS011;7225;59.282;18.344;2023-01-29T02:49:35;3.57;;;0.90;;
14282;SDS011;7225;59.282;18.344;2023-01-29T02:52:15;2.87;;;0.90;;
14282;SDS011;7225;59.282;18.344;2023-01-29T02:57:45;5.17;;;1.37;;
14282;SDS011;7225;59.282;18.344;2023-01-29T03:00:21;3.83;;;1.67;;
14282;SDS011;7225;59.282;18.344;2023-01-29T03:08:34;3.70;;;1.17;;
14282;SDS011;7225;59.282;18.344;2023-01-29T03:11:12;4.07;;;1.20;;
14282;SDS011;7225;59.282;18.344;2023-01-29T03:13:56;4.57;;;1.30;;
14282;SDS011;7225;59.282;18.344;2023-01-29T03:19:10;4.07;;;1.50;;
14282;SDS011;7225;59.282;18.344;2023-01-29T03:21:55;4.53;;;1.53;;
14282;SDS011;7225;59.282;18.344;2023-01-29T03:27:32;2.80;;;1.20;;
14282;SDS011;7225;59.282;18.344;2023-01-29T03:30:31;3.93;;;1.20;;
14282;SDS011;7225;59.282;18.344;2023-01-29T03:33:20;3.80;;;0.97;;
14282;SDS011;7225;59.282;18.344;2023-01-29T03:35:55;3.63;;;1.07;;
14282;SDS011;7225;59.282;18.344;2023-01-29T03:38:31;2.80;;;1.43;;
14282;SDS011;7225;59.282;18.344;2023-01-29T03:41:04;7.40;;;1.30;;
14282;SDS011;7225;59.282;18.344;2023-01-29T03:46:17;3.27;;;1.33;;
14282;SDS011;7225;59.282;18.344;2023-01-29T03:49:13;3.70;;;1.47;;
14282;SDS011;7225;59.282;18.344;2023-01-29T03:52:16;3.13;;;1.23;;
14282;SDS011;7225;59.282;18.344;2023-01-29T03:59:55;3.47;;;1.43;;
14282;SDS011;7225;59.282;18.344;2023-01-29T04:02:30;4.43;;;1.47;;
14282;SDS011;7225;59.282;18.344;2023-01-29T04:05:24;5.87;;;1.77;;
14282;SDS011;7225;59.282;18.344;2023-01-29T04:07:59;6.90;;;1.80;;
14282;SDS011;7225;59.282;18.344;2023-01-29T04:10:30;3.87;;;1.30;;
14282;SDS011;7225;59.282;18.344;2023-01-29T04:13:02;5.97;;;1.50;;
14282;SDS011;7225;59.282;18.344;2023-01-29T04:15:33;2.70;;;1.53;;
14282;SDS011;7225;59.282;18.344;2023-01-29T04:18:05;3.73;;;1.40;;
14282;SDS011;7225;59.282;18.344;2023-01-29T04:20:32;4.67;;;1.33;;
14282;SDS011;7225;59.282;18.344;2023-01-29T04:23:01;6.20;;;1.40;;
14282;SDS011;7225;59.282;18.344;2023-01-29T04:25:32;4.10;;;1.30;;
14282;SDS011;7225;59.282;18.344;2023-01-29T04:28:13;5.70;;;1.43;;
14282;SDS011;7225;59.282;18.344;2023-01-29T04:30:59;3.83;;;1.50;;
14282;SDS011;7225;59.282;18.344;2023-01-29T04:36:44;7.20;;;1.90;;
14282;SDS011;7225;59.282;18.344;2023-01-29T04:39:31;6.33;;;1.80;;
14282;SDS011;7225;59.282;18.344;2023-01-29T04:50:14;6.03;;;2.00;;
14282;SDS011;7225;59.282;18.344;2023-01-29T04:52:54;3.20;;;2.07;;
14282;SDS011;7225;59.282;18.344;2023-01-29T05:00:58;4.13;;;1.60;;
14282;SDS011;7225;59.282;18.344;2023-01-29T05:03:27;7.17;;;2.27;;
14282;SDS011;7225;59.282;18.344;2023-01-29T05:05:58;2.77;;;1.60;;
14282;SDS011;7225;59.282;18.344;2023-01-29T05:08:27;5.20;;;2.00;;
14282;SDS011;7225;59.282;18.344;2023-01-29T05:10:57;4.93;;;2.20;;
14282;SDS011;7225;59.282;18.344;2023-01-29T05:13:25;4.53;;;1.87;;
14282;SDS011;7225;59.282;18.344;2023-01-29T05:18:35;3.63;;;1.77;;
14282;SDS011;7225;59.282;18.344;2023-01-29T05:21:03;6.50;;;1.90;;
14282;SDS011;7225;59.282;18.344;2023-01-29T05:23:32;4.10;;;1.57;;
14282;SDS011;7225;59.282;18.344;2023-01-29T05:26:00;6.30;;;2.47;;
14282;SDS011;7225;59.282;18.344;2023-01-29T05:28:27;3.97;;;2.00;;
14282;SDS011;7225;59.282;18.344;2023-01-29T05:30:54;2.57;;;1.73;;
14282;SDS011;7225;59.282;18.344;2023-01-29T05:33:24;4.37;;;2.23;;
14282;SDS011;7225;59.282;18.344;2023-01-29T05:35:52;5.23;;;2.00;;
14282;SDS011;7225;59.282;18.344;2023-01-29T05:38:20;5.17;;;2.23;;
14282;SDS011;7225;59.282;18.344;2023-01-29T05:40:48;6.37;;;2.33;;
14282;SDS011;7225;59.282;18.344;2023-01-29T05:43:20;6.93;;;2.33;;
14282;SDS011;7225;59.282;18.344;2023-01-29T05:45:59;6.63;;;2.17;;
14282;SDS011;7225;59.282;18.344;2023-01-29T05:48:26;4.47;;;2.17;;
14282;SDS011;7225;59.282;18.344;2023-01-29T05:51:01;5.10;;;2.07;;
14282;SDS011;7225;59.282;18.344;2023-01-29T05:53:29;4.27;;;2.17;;
14282;SDS011;7225;59.282;18.344;2023-01-29T05:55:59;5.67;;;2.30;;
14282;SDS011;7225;59.282;18.344;2023-01-29T05:58:28;7.53;;;2.00;;
14282;SDS011;7225;59.282;18.344;2023-01-29T06:00:56;6.37;;;2.60;;
14282;SDS011;7225;59.282;18.344;2023-01-29T06:03:23;10.70;;;3.40;;
14282;SDS011;7225;59.282;18.344;2023-01-29T06:05:50;10.87;;;2.70;;
14282;SDS011;7225;59.282;18.344;2023-01-29T06:08:17;10.70;;;4.80;;
14282;SDS011;7225;59.282;18.344;2023-01-29T06:10:44;7.80;;;3.10;;
14282;SDS011;7225;59.282;18.344;2023-01-29T06:13:11;7.93;;;3.80;;
14282;SDS011;7225;59.282;18.344;2023-01-29T06:15:39;4.93;;;2.27;;
14282;SDS011;7225;59.282;18.344;2023-01-29T06:18:07;5.10;;;2.33;;
14282;SDS011;7225;59.282;18.344;2023-01-29T06:20:34;3.97;;;2.20;;
14282;SDS011;7225;59.282;18.344;2023-01-29T06:23:02;5.37;;;2.50;;
14282;SDS011;7225;59.282;18.344;2023-01-29T06:25:29;6.03;;;2.33;;
14282;SDS011;7225;59.282;18.344;2023-01-29T06:27:55;3.70;;;2.40;;
14282;SDS011;7225;59.282;18.344;2023-01-29T06:30:24;6.47;;;2.23;;
14282;SDS011;7225;59.282;18.344;2023-01-29T06:32:56;5.20;;;2.40;;
14282;SDS011;7225;59.282;18.344;2023-01-29T06:35:24;4.70;;;2.47;;
14282;SDS011;7225;59.282;18.344;2023-01-29T06:37:51;2.93;;;1.97;;
14282;SDS011;7225;59.282;18.344;2023-01-29T06:40:18;9.60;;;2.37;;
14282;SDS011;7225;59.282;18.344;2023-01-29T06:42:45;7.30;;;2.70;;
14282;SDS011;7225;59.282;18.344;2023-01-29T06:45:12;7.60;;;2.30;;
14282;SDS011;7225;59.282;18.344;2023-01-29T06:47:39;6.33;;;2.60;;
14282;SDS011;7225;59.282;18.344;2023-01-29T06:50:06;6.80;;;2.60;;
14282;SDS011;7225;59.282;18.344;2023-01-29T06:52:33;5.00;;;3.00;;
14282;SDS011;7225;59.282;18.344;2023-01-29T06:55:00;4.13;;;2.33;;
14282;SDS011;7225;59.282;18.344;2023-01-29T06:57:28;3.70;;;2.43;;
14282;SDS011;7225;59.282;18.344;2023-01-29T06:59:55;5.97;;;2.23;;
14282;SDS011;7225;59.282;18.344;2023-01-29T07:02:22;5.33;;;2.10;;
14282;SDS011;7225;59.282;18.344;2023-01-29T07:04:49;4.73;;;2.20;;
14282;SDS011;7225;59.282;18.344;2023-01-29T07:07:16;4.47;;;2.07;;
14282;SDS011;7225;59.282;18.344;2023-01-29T07:09:43;6.53;;;2.43;;
14282;SDS011;7225;59.282;18.344;2023-01-29T07:12:10;7.77;;;2.30;;
14282;SDS011;7225;59.282;18.344;2023-01-29T07:14:37;9.50;;;3.17;;
14282;SDS011;7225;59.282;18.344;2023-01-29T07:17:04;7.43;;;2.63;;
14282;SDS011;7225;59.282;18.344;2023-01-29T07:19:31;6.33;;;2.67;;
14282;SDS011;7225;59.282;18.344;2023-01-29T07:21:58;5.43;;;2.63;;
14282;SDS011;7225;59.282;18.344;2023-01-29T07:24:27;3.83;;;2.50;;
14282;SDS011;7225;59.282;18.344;2023-01-29T07:26:55;3.33;;;2.60;;
14282;SDS011;7225;59.282;18.344;2023-01-29T07:29:22;6.03;;;2.10;;
14282;SDS011;7225;59.282;18.344;2023-01-29T07:31:49;4.33;;;2.10;;
14282;SDS011;7225;59.282;18.344;2023-01-29T07:34:16;6.20;;;2.37;;
14282;SDS011;7225;59.282;18.344;2023-01-29T07:36:43;2.87;;;2.27;;
14282;SDS011;7225;59.282;18.344;2023-01-29T07:39:10;5.73;;;2.23;;
14282;SDS011;7225;59.282;18.344;2023-01-29T07:41:37;6.30;;;2.33;;
14282;SDS011;7225;59.282;18.344;2023-01-29T07:44:04;4.83;;;2.50;;
14282;SDS011;7225;59.282;18.344;2023-01-29T07:46:31;4.00;;;2.57;;
14282;SDS011;7225;59.282;18.344;2023-01-29T07:48:58;6.40;;;3.00;;
14282;SDS011;7225;59.282;18.344;2023-01-29T07:51:25;5.70;;;2.37;;
14282;SDS011;7225;59.282;18.344;2023-01-29T07:53:52;6.73;;;2.43;;
14282;SDS011;7225;59.282;18.344;2023-01-29T07:56:19;3.57;;;1.97;;
14282;SDS011;7225;59.282;18.344;2023-01-29T07:58:46;5.33;;;2.40;;
14282;SDS011;7225;59.282;18.344;2023-01-29T08:01:13;7.60;;;2.43;;
14282;SDS011;7225;59.282;18.344;2023-01-29T08:03:40;7.03;;;2.10;;
14282;SDS011;7225;59.282;18.344;2023-01-29T08:06:07;3.57;;;2.13;;
14282;SDS011;7225;59.282;18.344;2023-01-29T08:08:34;4.27;;;2.20;;
14282;SDS011;7225;59.282;18.344;2023-01-29T08:11:02;6.53;;;2.30;;
14282;SDS011;7225;59.282;18.344;2023-01-29T08:13:31;5.97;;;2.30;;
14282;SDS011;7225;59.282;18.344;2023-01-29T08:15:59;5.93;;;2.10;;
14282;SDS011;7225;59.282;18.344;2023-01-29T08:18:27;4.10;;;2.33;;
14282;SDS011;7225;59.282;18.344;2023-01-29T08:21:00;2.97;;;2.17;;
14282;SDS011;7225;59.282;18.344;2023-01-29T08:23:28;5.33;;;2.10;;
14282;SDS011;7225;59.282;18.344;2023-01-29T08:25:55;6.10;;;3.47;;
14282;SDS011;7225;59.282;18.344;2023-01-29T08:28:22;7.53;;;2.40;;
14282;SDS011;7225;59.282;18.344;2023-01-29T08:30:49;4.27;;;2.27;;
14282;SDS011;7225;59.282;18.344;2023-01-29T08:33:16;3.87;;;2.17;;
14282;SDS011;7225;59.282;18.344;2023-01-29T08:35:51;3.33;;;2.00;;
14282;SDS011;7225;59.282;18.344;2023-01-29T08:38:18;5.47;;;2.27;;
14282;SDS011;7225;59.282;18.344;2023-01-29T08:40:45;3.37;;;1.80;;
14282;SDS011;7225;59.282;18.344;2023-01-29T08:43:13;6.27;;;2.37;;
14282;SDS011;7225;59.282;18.344;2023-01-29T08:45:40;5.30;;;2.40;;
14282;SDS011;7225;59.282;18.344;2023-01-29T08:48:09;8.93;;;3.90;;
14282;SDS011;7225;59.282;18.344;2023-01-29T08:50:36;6.20;;;2.13;;
14282;SDS011;7225;59.282;18.344;2023-01-29T08:53:04;7.77;;;2.77;;
14282;SDS011;7225;59.282;18.344;2023-01-29T08:55:36;5.00;;;2.20;;
14282;SDS011;7225;59.282;18.344;2023-01-29T08:58:05;5.40;;;2.03;;
14282;SDS011;7225;59.282;18.344;2023-01-29T09:00:33;5.67;;;2.03;;
14282;SDS011;7225;59.282;18.344;2023-01-29T09:03:01;7.10;;;2.57;;
14282;SDS011;7225;59.282;18.344;2023-01-29T09:05:29;3.43;;;1.87;;
14282;SDS011;7225;59.282;18.344;2023-01-29T09:07:56;3.13;;;2.07;;
14282;SDS011;7225;59.282;18.344;2023-01-29T09:10:23;6.80;;;2.23;;
14282;SDS011;7225;59.282;18.344;2023-01-29T09:12:50;5.83;;;2.10;;
14282;SDS011;7225;59.282;18.344;2023-01-29T09:15:17;4.93;;;1.97;;
14282;SDS011;7225;59.282;18.344;2023-01-29T09:17:45;4.37;;;1.73;;
14282;SDS011;7225;59.282;18.344;2023-01-29T09:20:12;5.77;;;2.10;;
14282;SDS011;7225;59.282;18.344;2023-01-29T09:22:39;4.27;;;1.87;;
14282;SDS011;7225;59.282;18.344;2023-01-29T09:25:06;4.40;;;1.53;;
14282;SDS011;7225;59.282;18.344;2023-01-29T09:27:33;4.27;;;1.97;;
14282;SDS011;7225;59.282;18.344;2023-01-29T09:30:00;2.97;;;1.60;;
14282;SDS011;7225;59.282;18.344;2023-01-29T09:32:28;3.87;;;1.80;;
14282;SDS011;7225;59.282;18.344;2023-01-29T09:35:15;4.27;;;1.43;;
14282;SDS011;7225;59.282;18.344;2023-01-29T09:37:46;4.37;;;2.00;;
14282;SDS011;7225;59.282;18.344;2023-01-29T09:40:23;3.50;;;1.60;;
14282;SDS011;7225;59.282;18.344;2023-01-29T09:43:02;6.30;;;1.80;;
14282;SDS011;7225;59.282;18.344;2023-01-29T09:45:33;3.87;;;1.77;;
14282;SDS011;7225;59.282;18.344;2023-01-29T09:48:02;5.90;;;1.53;;
14282;SDS011;7225;59.282;18.344;2023-01-29T09:50:35;4.33;;;1.37;;
14282;SDS011;7225;59.282;18.344;2023-01-29T09:53:10;4.70;;;1.50;;
14282;SDS011;7225;59.282;18.344;2023-01-29T09:55:48;6.80;;;2.00;;
14282;SDS011;7225;59.282;18.344;2023-01-29T09:58:22;4.57;;;1.73;;
14282;SDS011;7225;59.282;18.344;2023-01-29T10:25:42;8.33;;;2.00;;
14282;SDS011;7225;59.282;18.344;2023-01-29T10:28:15;2.30;;;1.20;;
14282;SDS011;7225;59.282;18.344;2023-01-29T10:30:59;5.47;;;1.40;;
14282;SDS011;7225;59.282;18.344;2023-01-29T10:33:34;2.73;;;1.30;;
14282;SDS011;7225;59.282;18.344;2023-01-29T10:36:39;4.10;;;1.43;;
14282;SDS011;7225;59.282;18.344;2023-01-29T10:52:48;5.03;;;1.00;;
14282;SDS011;7225;59.282;18.344;2023-01-29T11:00:53;9.93;;;2.10;;
14282;SDS011;7225;59.282;18.344;2023-01-29T11:03:26;3.50;;;1.77;;
14282;SDS011;7225;59.282;18.344;2023-01-29T11:11:49;5.73;;;2.30;;
14282;SDS011;7225;59.282;18.344;2023-01-29T11:14:45;7.87;;;2.40;;
14282;SDS011;7225;59.282;18.344;2023-01-29T11:17:21;6.47;;;2.10;;
14282;SDS011;7225;59.282;18.344;2023-01-29T11:19:50;6.77;;;1.80;;
14282;SDS011;7225;59.282;18.344;2023-01-29T11:22:22;6.73;;;1.80;;
14282;SDS011;7225;59.282;18.344;2023-01-29T11:27:56;3.80;;;1.20;;
14282;SDS011;7225;59.282;18.344;2023-01-29T11:30:29;6.60;;;2.03;;
14282;SDS011;7225;59.282;18.344;2023-01-29T11:35:47;3.20;;;1.30;;
14282;SDS011;7225;59.282;18.344;2023-01-29T11:38:24;5.27;;;1.27;;
14282;SDS011;7225;59.282;18.344;2023-01-29T11:40:52;7.70;;;1.67;;
14282;SDS011;7225;59.282;18.344;2023-01-29T11:43:30;4.17;;;1.00;;
14282;SDS011;7225;59.282;18.344;2023-01-29T11:48:31;4.27;;;1.13;;
14282;SDS011;7225;59.282;18.344;2023-01-29T11:51:04;3.23;;;1.53;;
14282;SDS011;7225;59.282;18.344;2023-01-29T11:53:33;5.53;;;1.73;;
14282;SDS011;7225;59.282;18.344;2023-01-29T11:56:03;2.00;;;1.13;;
14282;SDS011;7225;59.282;18.344;2023-01-29T11:58:40;5.23;;;1.10;;
14282;SDS011;7225;59.282;18.344;2023-01-29T12:01:08;4.77;;;1.43;;
14282;SDS011;7225;59.282;18.344;2023-01-29T12:03:38;5.83;;;1.50;;
14282;SDS011;7225;59.282;18.344;2023-01-29T12:06:31;8.57;;;2.00;;
14282;SDS011;7225;59.282;18.344;2023-01-29T12:09:02;2.83;;;1.00;;
14282;SDS011;7225;59.282;18.344;2023-01-29T12:11:34;4.80;;;1.40;;
14282;SDS011;7225;59.282;18.344;2023-01-29T12:14:03;6.40;;;1.30;;
14282;SDS011;7225;59.282;18.344;2023-01-29T12:19:43;3.27;;;1.03;;
14282;SDS011;7225;59.282;18.344;2023-01-29T12:30:47;5.53;;;1.30;;
14282;SDS011;7225;59.282;18.344;2023-01-29T12:36:42;9.60;;;3.70;;
14282;SDS011;7225;59.282;18.344;2023-01-29T12:39:18;11.67;;;6.20;;
14282;SDS011;7225;59.282;18.344;2023-01-29T12:41:49;5.40;;;1.13;;
14282;SDS011;7225;59.282;18.344;2023-01-29T12:44:25;7.30;;;1.20;;
14282;SDS011;7225;59.282;18.344;2023-01-29T12:46:57;9.77;;;1.50;;
14282;SDS011;7225;59.282;18.344;2023-01-29T12:49:31;22.10;;;13.93;;
14282;SDS011;7225;59.282;18.344;2023-01-29T12:52:06;22.13;;;12.47;;
14282;SDS011;7225;59.282;18.344;2023-01-29T13:00:24;28.77;;;16.50;;
14282;SDS011;7225;59.282;18.344;2023-01-29T13:02:58;11.00;;;5.40;;
14282;SDS011;7225;59.282;18.344;2023-01-29T13:05:29;13.27;;;5.33;;
14282;SDS011;7225;59.282;18.344;2023-01-29T13:08:20;7.83;;;2.77;;
14282;SDS011;7225;59.282;18.344;2023-01-29T13:10:53;11.10;;;4.37;;
14282;SDS011;7225;59.282;18.344;2023-01-29T13:16:10;8.60;;;1.83;;
14282;SDS011;7225;59.282;18.344;2023-01-29T13:18:52;9.47;;;1.60;;
14282;SDS011;7225;59.282;18.344;2023-01-29T13:21:45;5.63;;;1.37;;
14282;SDS011;7225;59.282;18.344;2023-01-29T13:24:16;4.20;;;1.03;;
14282;SDS011;7225;59.282;18.344;2023-01-29T13:26:46;5.57;;;1.33;;
14282;SDS011;7225;59.282;18.344;2023-01-29T13:29:29;6.13;;;1.40;;
14282;SDS011;7225;59.282;18.344;2023-01-29T13:31:57;4.60;;;1.63;;
14282;SDS011;7225;59.282;18.344;2023-01-29T13:34:27;7.07;;;1.20;;
14282;SDS011;7225;59.282;18.344;2023-01-29T13:37:00;4.73;;;1.10;;
14282;SDS011;7225;59.282;18.344;2023-01-29T13:39:50;8.37;;;1.60;;
14282;SDS011;7225;59.282;18.344;2023-01-29T13:42:21;7.53;;;1.50;;
14282;SDS011;7225;59.282;18.344;2023-01-29T13:45:33;5.73;;;1.30;;
14282;SDS011;7225;59.282;18.344;2023-01-29T13:48:24;7.47;;;1.20;;
14282;SDS011;7225;59.282;18.344;2023-01-29T13:50:52;6.03;;;1.60;;
14282;SDS011;7225;59.282;18.344;2023-01-29T13:53:26;4.27;;;1.50;;
14282;SDS011;7225;59.282;18.344;2023-01-29T13:58:54;6.03;;;1.50;;
14282;SDS011;7225;59.282;18.344;2023-01-29T14:04:21;5.30;;;1.33;;
14282;SDS011;7225;59.282;18.344;2023-01-29T14:06:51;5.40;;;1.37;;
14282;SDS011;7225;59.282;18.344;2023-01-29T14:17:15;3.63;;;1.30;;
14282;SDS011;7225;59.282;18.344;2023-01-29T14:19:50;4.53;;;1.47;;
14282;SDS011;7225;59.282;18.344;2023-01-29T14:22:22;6.80;;;2.40;;
14282;SDS011;7225;59.282;18.344;2023-01-29T14:24:52;4.47;;;1.40;;
14282;SDS011;7225;59.282;18.344;2023-01-29T14:27:23;7.83;;;1.90;;
14282;SDS011;7225;59.282;18.344;2023-01-29T14:29:51;5.13;;;1.50;;
14282;SDS011;7225;59.282;18.344;2023-01-29T14:32:31;7.27;;;1.67;;
14282;SDS011;7225;59.282;18.344;2023-01-29T14:34:59;3.30;;;1.20;;
14282;SDS011;7225;59.282;18.344;2023-01-29T14:37:31;8.23;;;1.60;;
14282;SDS011;7225;59.282;18.344;2023-01-29T14:40:12;7.00;;;1.20;;
14282;SDS011;7225;59.282;18.344;2023-01-29T14:42:50;4.43;;;1.10;;
14282;SDS011;7225;59.282;18.344;2023-01-29T14:45:27;5.53;;;1.30;;
14282;SDS011;7225;59.282;18.344;2023-01-29T14:53:09;4.63;;;1.60;;
14282;SDS011;7225;59.282;18.344;2023-01-29T14:55:53;4.97;;;1.20;;
14282;SDS011;7225;59.282;18.344;2023-01-29T14:58:22;5.97;;;1.43;;
14282;SDS011;7225;59.282;18.344;2023-01-29T15:01:05;7.33;;;1.10;;
14282;SDS011;7225;59.282;18.344;2023-01-29T15:04:42;2.80;;;0.87;;
14282;SDS011;7225;59.282;18.344;2023-01-29T15:06:45;6.27;;;1.27;;
14282;SDS011;7225;59.282;18.344;2023-01-29T15:09:14;6.50;;;1.43;;
14282;SDS011;7225;59.282;18.344;2023-01-29T15:15:04;5.43;;;1.07;;
14282;SDS011;7225;59.282;18.344;2023-01-29T15:18:07;4.53;;;1.27;;
14282;SDS011;7225;59.282;18.344;2023-01-29T15:20:41;7.10;;;1.30;;
14282;SDS011;7225;59.282;18.344;2023-01-29T15:25:56;5.47;;;1.23;;
14282;SDS011;7225;59.282;18.344;2023-01-29T15:28:33;5.73;;;1.50;;
14282;SDS011;7225;59.282;18.344;2023-01-29T15:31:01;8.97;;;1.20;;
14282;SDS011;7225;59.282;18.344;2023-01-29T15:33:31;3.63;;;1.20;;
14282;SDS011;7225;59.282;18.344;2023-01-29T15:36:01;4.47;;;1.37;;
14282;SDS011;7225;59.282;18.344;2023-01-29T15:38:34;3.47;;;1.40;;
14282;SDS011;7225;59.282;18.344;2023-01-29T15:41:02;9.97;;;1.93;;
14282;SDS011;7225;59.282;18.344;2023-01-29T15:43:46;4.53;;;1.30;;
14282;SDS011;7225;59.282;18.344;2023-01-29T15:46:19;3.70;;;1.37;;
14282;SDS011;7225;59.282;18.344;2023-01-29T15:48:51;4.97;;;1.20;;
14282;SDS011;7225;59.282;18.344;2023-01-29T15:51:22;7.90;;;1.50;;
14282;SDS011;7225;59.282;18.344;2023-01-29T15:56:24;6.90;;;1.33;;
14282;SDS011;7225;59.282;18.344;2023-01-29T15:58:55;10.80;;;1.70;;
14282;SDS011;7225;59.282;18.344;2023-01-29T16:01:27;4.40;;;1.57;;
14282;SDS011;7225;59.282;18.344;2023-01-29T16:03:55;4.70;;;1.30;;
14282;SDS011;7225;59.282;18.344;2023-01-29T16:06:26;5.40;;;0.93;;
14282;SDS011;7225;59.282;18.344;2023-01-29T16:09:05;6.23;;;1.67;;
14282;SDS011;7225;59.282;18.344;2023-01-29T16:11:33;5.30;;;1.43;;
14282;SDS011;7225;59.282;18.344;2023-01-29T16:14:01;3.33;;;1.63;;
14282;SDS011;7225;59.282;18.344;2023-01-29T16:16:30;7.83;;;1.57;;
14282;SDS011;7225;59.282;18.344;2023-01-29T16:18:57;2.20;;;0.90;;
14282;SDS011;7225;59.282;18.344;2023-01-29T16:24:04;6.40;;;1.33;;
14282;SDS011;7225;59.282;18.344;2023-01-29T16:26:44;7.53;;;1.17;;
14282;SDS011;7225;59.282;18.344;2023-01-29T16:29:13;4.20;;;1.27;;
14282;SDS011;7225;59.282;18.344;2023-01-29T16:31:43;3.87;;;1.07;;
14282;SDS011;7225;59.282;18.344;2023-01-29T16:34:13;3.90;;;0.93;;
14282;SDS011;7225;59.282;18.344;2023-01-29T16:36:50;3.47;;;0.93;;
14282;SDS011;7225;59.282;18.344;2023-01-29T16:39:30;6.87;;;1.30;;
14282;SDS011;7225;59.282;18.344;2023-01-29T16:42:19;2.10;;;0.80;;
14282;SDS011;7225;59.282;18.344;2023-01-29T16:44:52;9.10;;;1.53;;
14282;SDS011;7225;59.282;18.344;2023-01-29T16:47:37;5.77;;;1.00;;
14282;SDS011;7225;59.282;18.344;2023-01-29T16:50:28;8.27;;;1.30;;
14282;SDS011;7225;59.282;18.344;2023-01-29T16:53:18;2.93;;;1.20;;
14282;SDS011;7225;59.282;18.344;2023-01-29T16:55:48;4.17;;;0.97;;
14282;SDS011;7225;59.282;18.344;2023-01-29T16:58:19;4.20;;;0.97;;
14282;SDS011;7225;59.282;18.344;2023-01-29T17:00:51;4.33;;;1.60;;
14282;SDS011;7225;59.282;18.344;2023-01-29T17:03:25;5.60;;;1.03;;
14282;SDS011;7225;59.282;18.344;2023-01-29T17:05:53;5.07;;;1.40;;
14282;SDS011;7225;59.282;18.344;2023-01-29T17:08:22;7.67;;;1.33;;
14282;SDS011;7225;59.282;18.344;2023-01-29T17:10:53;7.00;;;1.47;;
14282;SDS011;7225;59.282;18.344;2023-01-29T17:13:39;4.57;;;1.30;;
14282;SDS011;7225;59.282;18.344;2023-01-29T17:18:47;5.40;;;1.33;;
14282;SDS011;7225;59.282;18.344;2023-01-29T17:21:14;5.07;;;1.40;;
14282;SDS011;7225;59.282;18.344;2023-01-29T17:23:41;4.40;;;1.03;;
14282;SDS011;7225;59.282;18.344;2023-01-29T17:26:08;7.50;;;1.63;;
14282;SDS011;7225;59.282;18.344;2023-01-29T17:28:38;8.40;;;1.20;;
14282;SDS011;7225;59.282;18.344;2023-01-29T17:31:06;6.63;;;1.60;;
14282;SDS011;7225;59.282;18.344;2023-01-29T17:33:34;5.27;;;1.23;;
14282;SDS011;7225;59.282;18.344;2023-01-29T17:36:05;3.77;;;1.23;;
14282;SDS011;7225;59.282;18.344;2023-01-29T17:38:36;6.10;;;0.90;;
14282;SDS011;7225;59.282;18.344;2023-01-29T17:43:29;4.20;;;1.30;;
14282;SDS011;7225;59.282;18.344;2023-01-29T17:45:57;4.40;;;1.27;;
14282;SDS011;7225;59.282;18.344;2023-01-29T17:48:24;7.13;;;1.60;;
14282;SDS011;7225;59.282;18.344;2023-01-29T17:50:54;3.13;;;1.10;;
14282;SDS011;7225;59.282;18.344;2023-01-29T17:53:27;6.60;;;1.10;;
14282;SDS011;7225;59.282;18.344;2023-01-29T17:56:14;6.13;;;1.93;;
14282;SDS011;7225;59.282;18.344;2023-01-29T17:58:42;3.57;;;1.47;;
14282;SDS011;7225;59.282;18.344;2023-01-29T18:01:09;5.63;;;1.40;;
14282;SDS011;7225;59.282;18.344;2023-01-29T18:03:37;3.80;;;1.10;;
14282;SDS011;7225;59.282;18.344;2023-01-29T18:06:07;6.03;;;1.17;;
14282;SDS011;7225;59.282;18.344;2023-01-29T18:08:35;6.30;;;1.50;;
14282;SDS011;7225;59.282;18.344;2023-01-29T18:11:04;3.53;;;0.80;;
14282;SDS011;7225;59.282;18.344;2023-01-29T18:13:31;6.20;;;1.60;;
14282;SDS011;7225;59.282;18.344;2023-01-29T18:16:01;2.93;;;1.10;;
14282;SDS011;7225;59.282;18.344;2023-01-29T18:18:28;3.43;;;0.90;;
14282;SDS011;7225;59.282;18.344;2023-01-29T18:20:55;6.70;;;1.33;;